Time;durP1;ratioP1;P1;durP2;ratioP2;P2;SDS_P1;SDS_P2;PMS_P1;PMS_P2;Temp;Humidity;BMP_temperature;BMP_pressure;BME280_temperature;BME280_humidity;BME280_pressure;Samples;Min_cycle;Max_cycle;Signal;HPM_P1;HPM_P2
2023/06/30 01:02:55;;;;;;;8.43;4.22;;;18.50;99.90;;;;;;6216243;23;20024;-89
2023/06/30 01:06:24;;;;;;;6.75;4.03;;;18.40;99.90;;;;;;6198206;23;20029;-89
2023/06/30 01:09:18;;;;;;;8.10;4.68;;;18.20;99.90;;;;;;6197931;23;20029;-89
2023/06/30 01:12:08;;;;;;;7.85;5.32;;;18.20;99.90;;;;;;6195271;23;20040;-86
2023/06/30 01:14:57;;;;;;;10.38;5.70;;;18.10;99.90;;;;;;6196706;23;20076;-89
2023/06/30 01:18:03;;;;;;;9.10;5.45;;;18.10;99.90;;;;;;6196060;23;20027;-89
2023/06/30 01:20:54;;;;;;;9.98;5.60;;;18.10;99.90;;;;;;6200875;22;20032;-87
2023/06/30 01:23:49;;;;;;;10.68;5.43;;;18.10;99.90;;;;;;6196338;23;20063;-88
2023/06/30 01:26:41;;;;;;;6.57;5.25;;;18.00;99.90;;;;;;6202018;23;20080;-90
2023/06/30 01:29:29;;;;;;;10.18;5.10;;;18.10;99.90;;;;;;6211118;23;20028;-90
2023/06/30 01:32:17;;;;;;;8.13;5.50;;;18.00;99.90;;;;;;6211064;23;20031;-88
2023/06/30 01:40:22;;;;;;;6.33;4.03;;;18.00;99.90;;;;;;6212709;22;20059;-80
2023/06/30 01:43:10;;;;;;;7.47;4.55;;;18.00;99.90;;;;;;6193124;23;20032;-82
2023/06/30 01:45:57;;;;;;;7.88;5.18;;;18.10;99.90;;;;;;6213756;23;20028;-82
2023/06/30 01:48:49;;;;;;;10.85;5.00;;;18.10;99.90;;;;;;6211877;23;20032;-82
2023/06/30 01:51:37;;;;;;;9.73;5.72;;;18.00;99.90;;;;;;6213385;23;20024;-82
2023/06/30 01:54:24;;;;;;;8.60;5.25;;;18.00;99.90;;;;;;6214359;23;20309;-82
2023/06/30 01:57:14;;;;;;;7.03;5.20;;;17.90;99.90;;;;;;6192624;23;20029;-82
2023/06/30 02:00:03;;;;;;;8.23;5.50;;;17.80;99.90;;;;;;6216289;23;20039;-83
2023/06/30 02:02:50;;;;;;;10.80;6.47;;;17.80;99.90;;;;;;6213350;23;20080;-81
2023/06/30 02:05:37;;;;;;;10.38;5.88;;;17.90;99.90;;;;;;6212940;23;20411;-81
2023/06/30 02:08:24;;;;;;;7.70;5.35;;;17.80;99.90;;;;;;6211689;23;20456;-82
2023/06/30 02:11:12;;;;;;;7.70;5.60;;;17.70;99.90;;;;;;6211524;23;20048;-81
2023/06/30 02:13:59;;;;;;;10.05;5.22;;;17.70;99.90;;;;;;6191674;23;20028;-81
2023/06/30 02:16:51;;;;;;;12.88;5.65;;;17.70;99.90;;;;;;6212649;23;20028;-82
2023/06/30 02:19:38;;;;;;;8.85;5.63;;;17.60;99.90;;;;;;6212611;23;20032;-81
2023/06/30 02:22:26;;;;;;;9.95;5.90;;;17.60;99.90;;;;;;6212210;23;20339;-81
2023/06/30 02:25:15;;;;;;;7.88;5.35;;;17.50;99.90;;;;;;6190722;23;20051;-80
2023/06/30 02:28:02;;;;;;;9.50;5.68;;;17.50;99.90;;;;;;6191830;23;20033;-81
2023/06/30 02:30:49;;;;;;;9.25;5.65;;;17.40;99.90;;;;;;6211867;23;20285;-83
2023/06/30 02:33:37;;;;;;;9.10;5.95;;;17.30;99.90;;;;;;6211648;23;20035;-82
2023/06/30 02:36:25;;;;;;;8.60;5.43;;;17.20;99.90;;;;;;6212303;23;20020;-80
2023/06/30 02:39:12;;;;;;;7.78;4.72;;;17.20;99.90;;;;;;6191460;23;20404;-81
2023/06/30 02:42:02;;;;;;;8.15;4.93;;;17.20;99.90;;;;;;6211905;23;20447;-82
2023/06/30 02:44:49;;;;;;;9.65;5.10;;;17.40;99.90;;;;;;6212026;23;20055;-80
2023/06/30 02:47:38;;;;;;;9.23;5.20;;;17.50;99.90;;;;;;6190656;23;20033;-80
2023/06/30 02:50:30;;;;;;;9.15;5.45;;;17.60;99.90;;;;;;6212144;23;20025;-81
2023/06/30 02:53:17;;;;;;;7.60;5.82;;;17.80;99.90;;;;;;6191163;23;20029;-80
2023/06/30 02:56:04;;;;;;;7.53;5.63;;;17.80;99.90;;;;;;6210626;23;20025;-81
2023/06/30 02:58:54;;;;;;;7.22;5.43;;;17.80;99.90;;;;;;6190434;23;20120;-82
2023/06/30 03:01:41;;;;;;;10.15;5.88;;;17.80;99.90;;;;;;6211449;23;20040;-81
2023/06/30 03:04:28;;;;;;;8.13;4.72;;;17.70;99.90;;;;;;6193158;23;20032;-83
2023/06/30 03:07:16;;;;;;;7.60;5.40;;;17.70;99.90;;;;;;6190878;23;20040;-84
2023/06/30 03:10:06;;;;;;;6.60;5.15;;;17.70;99.90;;;;;;6190340;23;20020;-80
2023/06/30 03:12:54;;;;;;;9.73;5.07;;;17.60;99.90;;;;;;6212380;23;20020;-80
2023/06/30 03:15:41;;;;;;;7.80;5.43;;;17.60;99.90;;;;;;6211214;23;20020;-80
2023/06/30 03:18:28;;;;;;;9.77;5.30;;;17.60;99.90;;;;;;6190471;23;20037;-80
2023/06/30 03:21:16;;;;;;;10.75;5.50;;;17.50;99.90;;;;;;6190483;23;20029;-81
2023/06/30 03:24:03;;;;;;;8.57;4.93;;;17.40;99.90;;;;;;6212053;23;20036;-81
2023/06/30 03:26:53;;;;;;;9.07;5.78;;;17.40;99.90;;;;;;6190650;23;20025;-81
2023/06/30 03:29:40;;;;;;;9.70;5.85;;;17.20;99.90;;;;;;6212245;23;20036;-81
2023/06/30 03:32:28;;;;;;;9.13;5.90;;;17.20;99.90;;;;;;6211230;23;20024;-82
2023/06/30 03:35:17;;;;;;;11.93;6.00;;;17.20;99.90;;;;;;6211427;23;20032;-82
2023/06/30 03:38:05;;;;;;;12.45;6.10;;;17.20;99.90;;;;;;6211843;23;20028;-81
2023/06/30 03:40:52;;;;;;;12.93;6.43;;;17.20;99.90;;;;;;6241408;23;20039;-82
2023/06/30 03:43:40;;;;;;;11.00;6.57;;;17.20;99.90;;;;;;6244705;23;20028;-83
2023/06/30 03:46:27;;;;;;;13.77;6.80;;;17.20;99.90;;;;;;6222585;23;20028;-81
2023/06/30 03:49:14;;;;;;;12.63;6.65;;;17.30;99.90;;;;;;6224351;23;20090;-82
2023/06/30 03:52:01;;;;;;;9.25;6.38;;;17.40;99.90;;;;;;6221554;23;20020;-80
2023/06/30 03:54:51;;;;;;;12.73;5.82;;;17.50;99.90;;;;;;6244309;23;20032;-80
2023/06/30 03:57:40;;;;;;;11.85;6.50;;;17.70;99.90;;;;;;6223956;23;20023;-79
2023/06/30 04:01:11;;;;;;;10.75;6.30;;;17.80;99.90;;;;;;6245742;22;20032;-82
2023/06/30 04:04:10;;;;;;;10.23;5.60;;;18.00;99.90;;;;;;6137145;23;20088;-81
2023/06/30 04:06:57;;;;;;;8.98;5.90;;;18.10;99.90;;;;;;6224507;23;20117;-79
2023/06/30 04:09:47;;;;;;;14.80;6.07;;;18.20;99.90;;;;;;6246806;23;20031;-80
2023/06/30 04:12:37;;;;;;;13.32;6.10;;;18.30;99.90;;;;;;6244650;23;20323;-82
2023/06/30 04:15:26;;;;;;;12.27;6.53;;;18.40;99.90;;;;;;6246334;23;20028;-82
2023/06/30 04:18:13;;;;;;;10.98;5.88;;;18.40;99.90;;;;;;6246780;23;20028;-81
2023/06/30 04:21:03;;;;;;;10.27;5.50;;;18.40;99.90;;;;;;6223185;23;20035;-81
2023/06/30 04:23:51;;;;;;;12.07;5.35;;;18.50;99.90;;;;;;6247435;22;20112;-82
2023/06/30 04:26:38;;;;;;;9.57;4.80;;;18.60;99.90;;;;;;6247699;22;20380;-80
2023/06/30 04:29:25;;;;;;;8.60;5.20;;;18.80;99.90;;;;;;6247646;22;20028;-81
2023/06/30 04:32:12;;;;;;;10.27;4.95;;;18.90;99.90;;;;;;6244487;23;20031;-81
2023/06/30 04:35:02;;;;;;;9.80;5.55;;;18.90;99.90;;;;;;6225658;23;20028;-83
2023/06/30 04:37:49;;;;;;;9.10;4.45;;;19.00;99.90;;;;;;6247244;22;20086;-83
2023/06/30 04:40:36;;;;;;;9.90;5.40;;;18.90;99.90;;;;;;6220719;22;20035;-82
2023/06/30 04:43:24;;;;;;;7.32;5.03;;;18.70;99.90;;;;;;6214209;23;20034;-82
2023/06/30 04:46:13;;;;;;;6.95;5.40;;;18.60;99.90;;;;;;6192793;23;20042;-83
2023/06/30 04:49:00;;;;;;;12.75;6.22;;;18.40;99.90;;;;;;6201215;23;20028;-82
2023/06/30 04:51:48;;;;;;;11.75;7.35;;;18.20;99.90;;;;;;6208019;23;20036;-82
2023/06/30 04:54:35;;;;;;;13.40;8.27;;;18.00;99.90;;;;;;6228230;23;20421;-82
2023/06/30 04:57:23;;;;;;;13.30;8.43;;;17.60;99.90;;;;;;6232956;23;20056;-82
2023/06/30 05:00:11;;;;;;;14.25;9.00;;;17.30;99.90;;;;;;6227320;23;20091;-83
2023/06/30 05:03:05;;;;;;;17.42;9.15;;;17.20;99.90;;;;;;6221434;23;20041;-83
2023/06/30 05:05:53;;;;;;;17.48;9.68;;;17.10;99.90;;;;;;6218385;23;20035;-83
2023/06/30 05:08:42;;;;;;;13.55;9.23;;;17.10;99.90;;;;;;6216462;23;20028;-82
2023/06/30 05:11:30;;;;;;;15.35;10.15;;;17.00;99.90;;;;;;6193321;23;20028;-82
2023/06/30 05:14:19;;;;;;;18.48;11.00;;;17.10;99.90;;;;;;6213730;23;20025;-83
2023/06/30 05:17:07;;;;;;;15.40;10.85;;;17.00;99.90;;;;;;6215257;23;20021;-82
2023/06/30 05:19:55;;;;;;;18.33;12.25;;;17.00;99.90;;;;;;6213638;23;20068;-84
2023/06/30 05:22:42;;;;;;;19.85;12.57;;;16.90;99.90;;;;;;6193607;23;20028;-82
2023/06/30 05:25:29;;;;;;;23.23;13.60;;;16.90;99.90;;;;;;6214412;23;20383;-81
2023/06/30 05:28:16;;;;;;;19.40;14.77;;;16.80;99.90;;;;;;6192585;23;20025;-84
2023/06/30 05:31:05;;;;;;;20.38;14.98;;;16.60;99.90;;;;;;6192209;23;20066;-83
2023/06/30 05:33:54;;;;;;;26.60;17.20;;;16.60;99.90;;;;;;6213549;23;20343;-82
2023/06/30 05:36:43;;;;;;;31.50;19.20;;;16.50;99.90;;;;;;6214227;23;20037;-81
2023/06/30 05:39:31;;;;;;;31.20;18.75;;;16.50;99.90;;;;;;6212951;23;20035;-82
2023/06/30 05:42:18;;;;;;;34.55;21.17;;;16.40;99.90;;;;;;6194327;23;20020;-82
2023/06/30 05:45:06;;;;;;;29.80;19.83;;;16.50;99.90;;;;;;6213816;23;20024;-80
2023/06/30 05:47:53;;;;;;;34.63;22.75;;;16.40;99.90;;;;;;6213538;23;20029;-83
2023/06/30 05:50:40;;;;;;;35.85;24.00;;;16.40;99.90;;;;;;6213746;23;20032;-81
2023/06/30 05:53:28;;;;;;;37.45;24.45;;;16.50;99.90;;;;;;6192922;23;20679;-81
2023/06/30 05:56:18;;;;;;;39.28;24.75;;;16.50;99.90;;;;;;6214661;23;20024;-82
2023/06/30 05:59:10;;;;;;;32.72;25.35;;;16.50;99.90;;;;;;6214968;23;20061;-82
2023/06/30 06:01:59;;;;;;;38.30;26.33;;;16.50;99.90;;;;;;6214452;23;20475;-81
2023/06/30 06:04:47;;;;;;;40.00;25.83;;;16.50;99.90;;;;;;6192850;23;20020;-81
2023/06/30 06:07:34;;;;;;;42.47;28.02;;;16.50;99.90;;;;;;6214131;23;20028;-81
2023/06/30 06:10:21;;;;;;;37.15;26.30;;;16.60;99.90;;;;;;6213480;23;20035;-80
2023/06/30 06:13:30;;;;;;;32.30;24.58;;;16.60;99.90;;;;;;6192973;23;20028;-82
2023/06/30 06:16:17;;;;;;;34.38;25.35;;;16.70;99.90;;;;;;6214530;23;20128;-82
2023/06/30 06:19:04;;;;;;;33.58;25.83;;;16.80;99.90;;;;;;6213995;23;20028;-83
2023/06/30 06:21:52;;;;;;;35.45;27.25;;;16.90;99.90;;;;;;6213514;23;20021;-84
2023/06/30 06:24:39;;;;;;;36.40;27.90;;;17.00;99.90;;;;;;6217604;22;20178;-82
2023/06/30 06:27:28;;;;;;;38.17;27.67;;;17.00;99.90;;;;;;6212218;23;20021;-81
2023/06/30 06:30:16;;;;;;;37.90;29.58;;;17.10;99.90;;;;;;6191448;23;20035;-82
2023/06/30 06:33:05;;;;;;;41.17;30.67;;;17.00;99.90;;;;;;6213080;23;20031;-81
2023/06/30 06:35:53;;;;;;;38.58;28.50;;;16.90;99.90;;;;;;6192515;23;20036;-82
2023/06/30 06:38:40;;;;;;;37.72;25.33;;;16.80;99.90;;;;;;6212962;23;20040;-82
2023/06/30 06:41:27;;;;;;;33.35;24.10;;;16.90;99.90;;;;;;6214220;23;20031;-82
2023/06/30 06:44:14;;;;;;;37.13;24.67;;;16.90;99.90;;;;;;6214467;23;20029;-82
2023/06/30 06:47:40;;;;;;;33.75;24.80;;;17.20;99.90;;;;;;6213265;23;20031;-82
2023/06/30 06:50:27;;;;;;;38.47;22.63;;;17.30;99.90;;;;;;6213125;23;20024;-80
2023/06/30 06:53:40;;;;;;;33.60;20.88;;;17.40;99.90;;;;;;6193458;23;20031;-81
2023/06/30 06:56:28;;;;;;;30.80;21.98;;;17.50;99.90;;;;;;6191090;23;20047;-81
2023/06/30 06:59:15;;;;;;;30.63;19.67;;;17.50;99.90;;;;;;6214441;23;20060;-82
2023/06/30 07:02:04;;;;;;;28.48;19.42;;;17.40;99.90;;;;;;6212702;23;20106;-81
2023/06/30 07:04:52;;;;;;;29.55;19.00;;;17.30;99.90;;;;;;6193163;23;20016;-83
2023/06/30 07:07:40;;;;;;;31.20;18.83;;;17.40;99.90;;;;;;6212982;23;20039;-82
2023/06/30 07:10:29;;;;;;;29.02;17.88;;;17.40;99.90;;;;;;6212956;23;20431;-80
2023/06/30 07:13:22;;;;;;;26.88;17.83;;;17.40;99.90;;;;;;6192021;23;20020;-83
2023/06/30 07:16:10;;;;;;;30.77;18.45;;;17.40;99.90;;;;;;6214052;23;20074;-81
2023/06/30 07:18:58;;;;;;;25.98;17.40;;;17.40;99.90;;;;;;6193384;23;20270;-83
2023/06/30 07:21:47;;;;;;;25.17;16.58;;;17.50;99.90;;;;;;6214058;23;20025;-81
2023/06/30 07:24:34;;;;;;;24.33;15.73;;;17.40;99.90;;;;;;6214560;23;20035;-81
2023/06/30 07:27:30;;;;;;;26.38;17.40;;;17.40;99.90;;;;;;6195486;23;20025;-82
2023/06/30 07:30:17;;;;;;;26.17;17.70;;;17.50;99.90;;;;;;6216032;23;20039;-81
2023/06/30 07:33:05;;;;;;;24.88;16.77;;;17.60;99.90;;;;;;6212245;23;20060;-83
2023/06/30 07:35:52;;;;;;;26.45;17.10;;;17.60;99.90;;;;;;6214421;23;20036;-82
2023/06/30 07:38:40;;;;;;;27.85;17.52;;;17.60;99.90;;;;;;6211996;23;20100;-82
2023/06/30 07:41:34;;;;;;;26.52;17.08;;;17.60;99.90;;;;;;6213305;23;20024;-83
2023/06/30 07:44:22;;;;;;;29.25;17.27;;;17.70;99.90;;;;;;6193203;23;20024;-81
2023/06/30 07:47:10;;;;;;;30.88;17.65;;;17.80;99.90;;;;;;6215994;23;20024;-81
2023/06/30 07:49:57;;;;;;;29.55;16.35;;;17.80;99.90;;;;;;6214230;23;20028;-81
2023/06/30 07:52:47;;;;;;;30.35;17.13;;;17.90;99.90;;;;;;6218722;23;20037;-83
2023/06/30 07:55:35;;;;;;;26.58;17.00;;;17.90;99.90;;;;;;6193639;23;20029;-82
2023/06/30 07:58:22;;;;;;;29.15;17.45;;;18.00;99.90;;;;;;6213747;23;20029;-83
2023/06/30 08:01:12;;;;;;;28.20;17.52;;;18.00;99.90;;;;;;6215108;23;20532;-82
2023/06/30 08:03:59;;;;;;;29.85;18.80;;;18.00;99.90;;;;;;6214285;23;20028;-81
2023/06/30 08:06:47;;;;;;;35.55;18.50;;;17.90;99.90;;;;;;6214648;23;20285;-82
2023/06/30 08:09:35;;;;;;;30.17;17.75;;;17.90;99.90;;;;;;6214601;23;20355;-84
2023/06/30 08:12:22;;;;;;;31.95;18.10;;;18.10;99.90;;;;;;6215523;23;20024;-82
2023/06/30 08:15:13;;;;;;;29.63;17.70;;;18.10;99.90;;;;;;6214441;23;20029;-83
2023/06/30 08:18:00;;;;;;;26.70;16.55;;;18.20;99.90;;;;;;6214406;23;20032;-83
2023/06/30 08:20:57;;;;;;;25.27;16.88;;;18.30;99.90;;;;;;6215763;23;20159;-83
2023/06/30 08:23:45;;;;;;;27.05;16.25;;;18.50;99.90;;;;;;6214049;23;20047;-84
2023/06/30 08:26:33;;;;;;;20.30;15.25;;;18.40;99.90;;;;;;6193546;23;20028;-82
2023/06/30 08:29:20;;;;;;;24.10;15.68;;;18.40;99.90;;;;;;6218630;23;20028;-82
2023/06/30 08:32:08;;;;;;;25.10;15.77;;;18.40;99.90;;;;;;6193978;23;20060;-81
2023/06/30 08:34:55;;;;;;;20.80;14.88;;;18.30;99.90;;;;;;6213251;23;20035;-82
2023/06/30 08:37:45;;;;;;;23.27;16.20;;;18.20;99.90;;;;;;6194583;23;20103;-83
2023/06/30 08:40:37;;;;;;;25.48;17.50;;;18.20;99.90;;;;;;6213607;23;20124;-82
2023/06/30 08:43:31;;;;;;;26.05;18.20;;;18.10;99.90;;;;;;6214401;23;20029;-81
2023/06/30 08:46:22;;;;;;;23.38;16.77;;;18.00;99.90;;;;;;6214134;23;20020;-82
2023/06/30 08:49:12;;;;;;;26.02;18.42;;;17.90;99.90;;;;;;6213608;23;20021;-83
2023/06/30 08:52:00;;;;;;;30.48;19.25;;;17.80;99.90;;;;;;6213514;23;20032;-81
2023/06/30 08:54:47;;;;;;;28.17;19.05;;;17.70;99.90;;;;;;6213167;23;20055;-82
2023/06/30 08:57:38;;;;;;;26.40;18.38;;;17.60;99.90;;;;;;6217317;23;20108;-81
2023/06/30 09:00:26;;;;;;;25.52;15.73;;;17.50;99.90;;;;;;6213987;23;20431;-81
2023/06/30 09:03:13;;;;;;;23.52;14.45;;;17.40;99.90;;;;;;6213174;23;20028;-81
2023/06/30 09:06:01;;;;;;;23.33;14.82;;;17.40;99.90;;;;;;6192946;23;20024;-83
2023/06/30 09:09:09;;;;;;;26.95;16.55;;;17.40;99.90;;;;;;6215357;23;20078;-82
2023/06/30 09:12:00;;;;;;;18.05;15.20;;;17.40;99.90;;;;;;6213683;23;20052;-81
2023/06/30 09:14:51;;;;;;;22.88;17.15;;;17.40;99.90;;;;;;6213849;23;20075;-82
2023/06/30 09:17:41;;;;;;;22.33;16.75;;;17.40;99.90;;;;;;6211566;23;20124;-82
2023/06/30 09:20:28;;;;;;;20.70;15.50;;;17.50;99.90;;;;;;6215888;23;20024;-82
2023/06/30 09:23:18;;;;;;;22.55;15.50;;;17.60;99.90;;;;;;6194013;23;20039;-81
2023/06/30 09:26:13;;;;;;;19.58;15.55;;;17.70;99.90;;;;;;6213322;23;20444;-81
2023/06/30 09:29:02;;;;;;;21.90;15.10;;;18.00;99.90;;;;;;6213649;23;20039;-81
2023/06/30 09:31:51;;;;;;;19.77;12.68;;;18.10;99.90;;;;;;6213292;23;20024;-83
2023/06/30 09:34:40;;;;;;;16.15;11.90;;;18.40;99.90;;;;;;6193392;23;20039;-81
2023/06/30 09:37:27;;;;;;;16.23;11.48;;;18.50;99.90;;;;;;6215374;23;20078;-81
2023/06/30 09:40:24;;;;;;;14.65;10.40;;;18.50;99.90;;;;;;6208058;23;20028;-81
2023/06/30 09:43:22;;;;;;;14.70;9.88;;;18.80;99.90;;;;;;6214260;23;20028;-82
2023/06/30 09:46:11;;;;;;;14.27;9.52;;;19.00;99.90;;;;;;6216228;23;20036;-84
2023/06/30 09:49:04;;;;;;;15.57;10.20;;;19.10;99.90;;;;;;6217191;23;20025;-82
2023/06/30 09:51:53;;;;;;;10.85;8.80;;;19.10;99.90;;;;;;6215766;23;20028;-87
2023/06/30 09:54:44;;;;;;;15.43;10.00;;;19.20;99.90;;;;;;6218720;23;20032;-87
2023/06/30 09:57:32;;;;;;;12.43;9.50;;;19.10;99.90;;;;;;6217663;23;20028;-85
2023/06/30 10:00:20;;;;;;;12.30;9.93;;;19.10;99.90;;;;;;6218248;23;20021;-87
2023/06/30 10:03:23;;;;;;;17.67;10.13;;;19.00;99.90;;;;;;6218318;22;20020;-85
2023/06/30 10:06:11;;;;;;;14.02;10.77;;;19.00;99.90;;;;;;6218293;23;20044;-88
2023/06/30 10:09:01;;;;;;;14.43;10.95;;;19.00;99.90;;;;;;6215955;23;20020;-88
2023/06/30 10:11:53;;;;;;;17.85;11.05;;;18.90;99.90;;;;;;6219116;23;20111;-88
2023/06/30 10:14:41;;;;;;;14.80;10.77;;;18.70;99.90;;;;;;6218453;23;20032;-87
2023/06/30 10:17:30;;;;;;;16.95;11.73;;;18.60;99.90;;;;;;6219966;22;20034;-88
2023/06/30 10:20:18;;;;;;;19.67;11.93;;;18.60;99.90;;;;;;6219175;22;20035;-88
2023/06/30 10:23:10;;;;;;;18.70;12.77;;;18.70;99.90;;;;;;6219661;22;20296;-86
2023/06/30 10:25:59;;;;;;;17.65;13.40;;;18.90;99.90;;;;;;6216980;23;20320;-88
2023/06/30 10:28:49;;;;;;;19.00;14.55;;;19.00;99.90;;;;;;6227299;22;20025;-88
2023/06/30 10:31:36;;;;;;;19.65;13.95;;;19.10;99.90;;;;;;6233290;22;20032;-88
2023/06/30 10:34:25;;;;;;;19.70;13.35;;;19.10;99.90;;;;;;6233251;22;20032;-88
2023/06/30 10:37:13;;;;;;;18.10;14.00;;;19.00;99.90;;;;;;6231548;23;20025;-85
2023/06/30 10:40:08;;;;;;;19.65;15.10;;;19.00;99.90;;;;;;6243427;22;20020;-85
2023/06/30 10:42:59;;;;;;;19.95;14.18;;;19.20;99.90;;;;;;6241089;23;20012;-86
2023/06/30 10:46:06;;;;;;;22.95;15.15;;;19.30;99.90;;;;;;6234591;23;20029;-87
2023/06/30 10:48:59;;;;;;;20.73;14.82;;;19.50;99.90;;;;;;6214476;23;20127;-87
2023/06/30 10:51:49;;;;;;;24.20;15.32;;;19.70;99.90;;;;;;6236214;23;20024;-88
2023/06/30 10:54:47;;;;;;;21.30;14.50;;;19.90;99.90;;;;;;6229228;23;20154;-88
2023/06/30 10:57:39;;;;;;;18.65;14.40;;;20.10;99.90;;;;;;6196915;23;20038;-89
2023/06/30 11:00:29;;;;;;;23.33;15.00;;;20.10;99.90;;;;;;6216000;23;20499;-88
2023/06/30 11:03:19;;;;;;;20.05;14.48;;;20.30;99.90;;;;;;6218375;23;20122;-88
2023/06/30 11:06:19;;;;;;;18.23;13.15;;;20.50;99.90;;;;;;6192626;23;20082;-88
2023/06/30 11:09:10;;;;;;;19.27;14.95;;;20.80;99.90;;;;;;6194420;23;20024;-89
2023/06/30 11:12:00;;;;;;;20.25;15.15;;;21.30;99.90;;;;;;6216236;23;20028;-88
2023/06/30 11:14:50;;;;;;;18.55;13.50;;;21.90;99.90;;;;;;6193781;23;20413;-88
2023/06/30 11:17:54;;;;;;;18.60;13.40;;;22.20;99.90;;;;;;6197379;23;20028;-87
2023/06/30 11:21:03;;;;;;;19.38;13.80;;;22.40;99.90;;;;;;6196089;23;20098;-88
2023/06/30 11:23:51;;;;;;;21.85;14.80;;;22.50;99.90;;;;;;6215948;23;20025;-88
2023/06/30 11:26:39;;;;;;;20.25;15.15;;;22.20;99.90;;;;;;6198437;23;20020;-88
2023/06/30 11:29:30;;;;;;;21.25;14.93;;;22.30;99.90;;;;;;6218691;23;20055;-88
2023/06/30 11:32:25;;;;;;;20.10;15.45;;;22.30;99.90;;;;;;6216464;23;20416;-88
2023/06/30 11:35:16;;;;;;;19.60;15.30;;;22.40;96.30;;;;;;6215517;23;20036;-88
2023/06/30 11:38:08;;;;;;;21.05;15.50;;;22.40;70.90;;;;;;6195608;23;20037;-89
2023/06/30 11:40:59;;;;;;;22.67;17.20;;;22.10;1.00;;;;;;6216773;23;20032;-89
2023/06/30 11:43:55;;;;;;;24.05;17.13;;;22.20;1.00;;;;;;6215946;23;20025;-88
2023/06/30 11:46:45;;;;;;;25.73;17.17;;;22.30;99.90;;;;;;6197976;23;20051;-89
2023/06/30 11:49:38;;;;;;;28.52;17.70;;;22.10;99.90;;;;;;6219356;23;20028;-87
2023/06/30 11:52:26;;;;;;;26.65;17.65;;;22.00;99.90;;;;;;6197499;23;20035;-88
2023/06/30 11:55:15;;;;;;;23.48;18.63;;;21.70;99.90;;;;;;6219821;23;20118;-87
2023/06/30 11:58:02;;;;;;;27.15;18.10;;;21.90;99.90;;;;;;6219008;23;20495;-89
2023/06/30 12:00:54;;;;;;;25.77;18.52;;;22.00;99.90;;;;;;6216444;23;20021;-88
2023/06/30 12:03:44;;;;;;;25.58;18.50;;;22.20;99.90;;;;;;6218288;23;20039;-88
2023/06/30 12:06:33;;;;;;;27.75;18.95;;;22.20;99.90;;;;;;6218629;23;20028;-87
2023/06/30 12:09:22;;;;;;;24.08;18.02;;;22.00;99.90;;;;;;6216804;23;20076;-90
2023/06/30 12:12:10;;;;;;;26.15;17.98;;;22.10;99.90;;;;;;6217807;23;20025;-88
2023/06/30 12:14:57;;;;;;;22.20;17.55;;;22.30;99.90;;;;;;6219429;23;20420;-88
2023/06/30 12:17:45;;;;;;;28.27;18.60;;;22.70;85.80;;;;;;6217321;23;20340;-89
2023/06/30 12:20:39;;;;;;;25.35;17.23;;;23.00;1.00;;;;;;6217607;23;20325;-88
2023/06/30 12:23:29;;;;;;;23.55;17.92;;;23.10;99.90;;;;;;6219851;23;20052;-89
2023/06/30 12:26:19;;;;;;;25.95;17.48;;;23.10;99.90;;;;;;6195191;23;20458;-88
2023/06/30 12:29:07;;;;;;;28.48;19.15;;;23.30;99.90;;;;;;6204304;23;20032;-90
2023/06/30 12:31:55;;;;;;;26.85;18.83;;;23.60;1.00;;;;;;6218493;23;20027;-89
2023/06/30 12:34:45;;;;;;;26.88;18.65;;;23.80;99.90;;;;;;6217862;23;20035;-88
2023/06/30 12:37:33;;;;;;;26.98;19.00;;;23.80;99.90;;;;;;6198320;23;20028;-89
2023/06/30 12:40:21;;;;;;;28.35;19.42;;;23.60;99.90;;;;;;6213345;23;20092;-89
2023/06/30 12:43:08;;;;;;;25.67;19.08;;;23.50;99.90;;;;;;6221761;23;20424;-89
2023/06/30 12:45:58;;;;;;;27.13;19.92;;;23.50;99.90;;;;;;6221798;23;20046;-88
2023/06/30 12:48:46;;;;;;;30.45;21.00;;;23.30;99.90;;;;;;6220818;23;20024;-90
2023/06/30 12:51:33;;;;;;;27.60;19.92;;;22.80;99.90;;;;;;6219722;23;20119;-87
2023/06/30 12:54:21;;;;;;;28.63;19.63;;;22.70;17.60;;;;;;6219598;23;20040;-88
2023/06/30 12:57:09;;;;;;;30.15;20.35;;;23.10;47.40;;;;;;6218690;23;20116;-89
2023/06/30 12:59:56;;;;;;;24.83;18.70;;;23.10;1.00;;;;;;6220163;23;20055;-89
2023/06/30 13:02:43;;;;;;;28.67;19.80;;;23.30;10.60;;;;;;6218580;23;20032;-87
2023/06/30 13:05:32;;;;;;;26.35;19.20;;;23.70;1.00;;;;;;6218955;23;20024;-88
2023/06/30 13:08:21;;;;;;;29.42;19.77;;;23.90;1.00;;;;;;6233154;23;20139;-88
2023/06/30 13:11:08;;;;;;;28.38;20.98;;;23.90;1.00;;;;;;6231098;23;20020;-87
2023/06/30 13:13:57;;;;;;;31.42;21.30;;;24.30;1.00;;;;;;6232903;23;20045;-91
2023/06/30 13:16:44;;;;;;;29.48;21.23;;;24.60;99.90;;;;;;6240718;23;20021;-85
2023/06/30 13:19:37;;;;;;;29.38;20.02;;;24.30;99.90;;;;;;6263167;23;20100;-88
2023/06/30 13:22:27;;;;;;;29.55;20.50;;;24.90;99.90;;;;;;6259511;22;20032;-89
2023/06/30 13:25:16;;;;;;;30.02;21.20;;;25.90;99.90;;;;;;6238815;23;20024;-87
2023/06/30 13:28:06;;;;;;;29.83;20.75;;;26.20;99.90;;;;;;6236766;23;20024;-89
2023/06/30 13:30:56;;;;;;;28.50;21.30;;;26.80;99.90;;;;;;6232625;23;20063;-89
2023/06/30 13:33:49;;;;;;;27.25;20.77;;;27.70;99.90;;;;;;6237872;22;20058;-89
2023/06/30 13:36:37;;;;;;;28.15;20.85;;;28.00;99.90;;;;;;6236688;23;20016;-88
2023/06/30 13:39:24;;;;;;;27.98;20.55;;;28.40;99.90;;;;;;6237954;23;20026;-90
2023/06/30 13:42:11;;;;;;;25.58;20.17;;;29.00;99.90;;;;;;6236578;23;20080;-89
2023/06/30 13:44:59;;;;;;;26.98;20.30;;;29.70;99.90;;;;;;6238759;23;20031;-89
2023/06/30 13:47:46;;;;;;;28.40;20.23;;;29.90;99.90;;;;;;6227145;23;20075;-90
2023/06/30 13:50:38;;;;;;;27.25;21.25;;;29.30;99.90;;;;;;6225890;23;20023;-89
2023/06/30 13:53:26;;;;;;;29.58;21.40;;;28.80;78.60;;;;;;6225657;23;20056;-89
2023/06/30 13:56:15;;;;;;;28.95;22.63;;;28.20;70.90;;;;;;6198499;23;20032;-90
2023/06/30 13:59:03;;;;;;;31.75;22.17;;;27.20;66.80;;;;;;6194475;23;20103;-88
2023/06/30 14:01:50;;;;;;;33.80;24.17;;;26.30;83.40;;;;;;6218034;23;20036;-89
2023/06/30 14:04:38;;;;;;;33.13;23.50;;;25.70;90.30;;;;;;6220115;22;20128;-90
2023/06/30 14:07:25;;;;;;;31.80;23.27;;;25.20;99.90;;;;;;6215589;23;20020;-88
2023/06/30 14:10:12;;;;;;;34.00;24.35;;;25.00;99.90;;;;;;6196455;23;20446;-89
2023/06/30 14:13:01;;;;;;;33.90;25.23;;;25.40;99.90;;;;;;6216937;23;20116;-88
2023/06/30 14:15:48;;;;;;;33.05;22.63;;;25.30;97.70;;;;;;6193929;23;20043;-87
2023/06/30 14:18:38;;;;;;;37.17;24.85;;;25.30;99.90;;;;;;6216053;23;20039;-89
2023/06/30 14:21:26;;;;;;;33.35;23.83;;;24.80;91.30;;;;;;6214101;23;20060;-87
2023/06/30 14:24:15;;;;;;;32.08;24.35;;;24.30;92.50;;;;;;6215857;23;20020;-88
2023/06/30 14:27:03;;;;;;;39.20;25.13;;;24.10;92.80;;;;;;6215642;23;20021;-92
2023/06/30 14:29:52;;;;;;;34.40;24.40;;;24.00;99.70;;;;;;6192154;23;20416;-90
2023/06/30 14:32:39;;;;;;;35.47;24.92;;;23.90;99.90;;;;;;6193236;23;20029;-90
2023/06/30 14:35:28;;;;;;;34.15;23.52;;;23.80;99.90;;;;;;6195160;23;20024;-91
2023/06/30 14:38:16;;;;;;;32.15;23.38;;;23.50;99.90;;;;;;6216465;23;20028;-91
2023/06/30 14:41:05;;;;;;;34.70;22.92;;;23.30;99.90;;;;;;6196348;23;20028;-89
2023/06/30 14:43:55;;;;;;;33.85;23.20;;;23.10;99.90;;;;;;6215557;23;20079;-91
2023/06/30 14:46:45;;;;;;;32.50;22.88;;;23.60;99.90;;;;;;6217964;23;20395;-87
2023/06/30 14:49:32;;;;;;;32.28;21.65;;;24.40;99.90;;;;;;6228276;23;20036;-88
2023/06/30 14:52:19;;;;;;;29.38;20.55;;;24.90;94.50;;;;;;6219196;23;20128;-90
2023/06/30 14:55:07;;;;;;;32.15;22.33;;;25.40;76.00;;;;;;6216877;23;20035;-85
2023/06/30 14:57:59;;;;;;;;;;;25.20;55.30;;;;;;6220035;23;20039;-87
2023/06/30 15:00:46;;;;;;;29.67;20.77;;;25.20;53.60;;;;;;6220701;23;19931;-90
2023/06/30 15:03:37;;;;;;;27.27;20.52;;;25.10;52.00;;;;;;6220074;23;20028;-89
2023/06/30 15:06:26;;;;;;;27.38;19.33;;;25.00;49.60;;;;;;6219711;23;20456;-88
2023/06/30 15:09:13;;;;;;;27.92;18.95;;;25.60;35.80;;;;;;6219203;23;20031;-89
2023/06/30 15:12:01;;;;;;;26.55;19.42;;;26.10;1.80;;;;;;6218775;23;20021;-89
2023/06/30 15:14:48;;;;;;;25.27;18.52;;;25.70;1.00;;;;;;6216195;23;20115;-87
2023/06/30 15:17:36;;;;;;;25.25;18.10;;;25.10;1.00;;;;;;6219943;23;20416;-89
2023/06/30 15:20:25;;;;;;;24.35;16.70;;;24.00;3.50;;;;;;6218844;23;20331;-88
2023/06/30 15:23:13;;;;;;;23.73;16.65;;;23.30;24.90;;;;;;6195106;23;20028;-89
2023/06/30 15:26:04;;;;;;;21.73;16.52;;;23.00;43.20;;;;;;6218522;23;20025;-89
2023/06/30 15:28:53;;;;;;;23.73;16.40;;;23.90;49.10;;;;;;6216257;23;20028;-87
2023/06/30 15:31:41;;;;;;;23.25;15.90;;;25.40;2.10;;;;;;6195458;23;20420;-90
2023/06/30 15:34:28;;;;;;;21.70;15.32;;;25.80;1.00;;;;;;6219211;23;20032;-89